Time;durP1;ratioP1;P1;durP2;ratioP2;P2;SDS_P1;SDS_P2;PMS_P1;PMS_P2;Temp;Humidity;BMP_temperature;BMP_pressure;BME280_temperature;BME280_humidity;BME280_pressure;Samples;Min_cycle;Max_cycle;Signal;HPM_P1;HPM_P2
2022/06/11 00:01:21;;;;;;;3.35;1.30;;;;;;;-144.94;51.72;76250.13;5054803;28;20041;-89
2022/06/11 00:03:50;;;;;;;5.80;1.30;;;;;;;-144.94;52.03;76264.53;5052431;28;20034;-90
2022/06/11 00:06:15;;;;;;;3.45;1.05;;;;;;;-144.94;52.04;76264.53;5049253;28;20045;-89
2022/06/11 00:08:43;;;;;;;3.30;1.30;;;;;;;-144.94;52.00;76260.44;5050992;28;20043;-92
2022/06/11 00:11:09;;;;;;;3.55;1.45;;;;;;;-144.94;52.14;76276.91;5047638;28;20033;-89
2022/06/11 00:13:35;;;;;;;4.05;1.58;;;;;;;-144.94;52.16;76262.47;5047799;28;20092;-90
2022/06/11 00:16:01;;;;;;;4.93;1.08;;;;;;;-144.94;52.21;76276.91;5031800;28;20041;-88
2022/06/11 00:18:28;;;;;;;3.78;1.17;;;;;;;-144.94;52.43;76274.84;5052145;28;20057;-87
2022/06/11 00:20:54;;;;;;;4.32;1.08;;;;;;;-144.94;52.37;76278.97;5031296;28;20033;-89
2022/06/11 00:23:20;;;;;;;2.80;1.10;;;;;;;-144.94;52.43;76268.66;5047728;28;20033;-88
2022/06/11 00:25:46;;;;;;;4.80;1.38;;;;;;;-144.94;52.28;76262.47;5044956;28;20041;-90
2022/06/11 00:28:11;;;;;;;2.67;1.20;;;;;;;-144.94;52.70;76274.84;5044130;28;20440;-90
2022/06/11 00:30:37;;;;;;;4.88;1.60;;;;;;;-144.94;52.75;76283.06;5045973;28;20056;-90
2022/06/11 00:33:06;;;;;;;;;;;;;;;-144.94;52.96;76285.13;5042217;28;20476;-90
2022/06/11 00:35:33;;;;;;;2.95;1.10;;;;;;;-144.94;52.88;76281.00;5041728;28;19991;-89
2022/06/11 00:37:59;;;;;;;2.63;1.23;;;;;;;-144.94;53.05;76287.19;5041973;28;20056;-90
2022/06/11 00:40:27;;;;;;;2.65;1.35;;;;;;;-144.94;53.31;76295.44;5044105;28;20048;-89
2022/06/11 00:42:52;;;;;;;3.53;1.42;;;;;;;-144.94;53.24;76297.47;5044334;28;20021;-89
2022/06/11 00:45:35;;;;;;;6.15;1.45;;;;;;;-144.94;53.53;76307.78;5044869;28;20061;-90
2022/06/11 00:48:06;;;;;;;3.22;1.27;;;;;;;-144.94;54.03;76316.00;5042323;28;20056;-88
2022/06/11 00:50:40;;;;;;;2.50;1.08;;;;;;;-144.94;53.65;76299.53;5042614;28;20471;-88
2022/06/11 00:53:20;;;;;;;3.47;1.48;;;;;;;-144.94;53.51;76287.19;5033843;28;20033;-87
2022/06/11 00:55:47;;;;;;;2.35;1.05;;;;;;;-144.94;53.50;76291.31;5052578;28;20090;-87
2022/06/11 00:58:17;;;;;;;2.75;1.13;;;;;;;-144.94;54.12;76311.88;5040137;28;20033;-88
2022/06/11 01:00:55;;;;;;;3.35;1.23;;;;;;;-144.94;54.23;76324.25;5059607;28;20021;-87
2022/06/11 01:03:29;;;;;;;3.90;1.65;;;;;;;-144.94;54.42;76336.59;5058033;28;20109;-89
2022/06/11 01:06:02;;;;;;;4.38;1.30;;;;;;;-144.94;54.15;76330.41;5052477;28;20112;-88
2022/06/11 01:08:48;;;;;;;3.97;1.52;;;;;;;-144.94;54.02;76332.47;5048425;28;20044;-89
2022/06/11 01:11:13;;;;;;;3.13;1.17;;;;;;;-144.94;54.09;76328.34;5046742;28;20083;-88
2022/06/11 01:13:44;;;;;;;3.70;1.40;;;;;;;-144.94;54.32;76332.47;5044346;28;20029;-89
2022/06/11 01:16:52;;;;;;;5.53;1.50;;;;;;;-144.94;54.35;76330.41;5042845;28;20437;-88
2022/06/11 01:20:05;;;;;;;3.33;1.30;;;;;;;-144.94;54.51;76330.41;5043142;28;20041;-89
2022/06/11 01:22:43;;;;;;;3.35;1.48;;;;;;;-144.94;54.72;76332.47;5022118;28;20077;-88
2022/06/11 01:25:27;;;;;;;4.00;1.38;;;;;;;-144.94;54.79;76332.47;5043757;28;20096;-89
2022/06/11 01:28:26;;;;;;;3.28;1.25;;;;;;;-144.94;54.88;76342.78;5041850;28;20075;-88
2022/06/11 01:30:51;;;;;;;5.22;1.30;;;;;;;-144.94;55.28;76348.94;5040654;28;20031;-88
2022/06/11 01:33:33;;;;;;;2.43;1.20;;;;;;;-144.94;55.25;76353.06;5041842;28;20053;-89
2022/06/11 01:36:26;;;;;;;3.15;1.10;;;;;;;-144.94;55.57;76359.25;5042737;28;20711;-88
2022/06/11 01:39:24;;;;;;;4.50;1.70;;;;;;;-144.94;55.75;76367.47;5039234;28;20029;-88
2022/06/11 01:42:18;;;;;;;3.42;1.33;;;;;;;-144.94;55.95;76373.66;5038723;28;20052;-88
2022/06/11 01:44:44;;;;;;;5.07;1.15;;;;;;;-144.94;56.06;76375.72;5038531;28;20039;-89
2022/06/11 01:47:13;;;;;;;4.10;1.58;;;;;;;-144.94;56.32;76386.00;5021245;28;20033;-88
2022/06/11 01:49:45;;;;;;;3.08;1.30;;;;;;;-144.94;56.16;76386.00;5038585;28;20026;-89
2022/06/11 01:52:48;;;;;;;3.22;1.35;;;;;;;-144.94;56.49;76390.13;5042757;28;20072;-89
2022/06/11 01:55:38;;;;;;;3.28;1.40;;;;;;;-144.94;56.78;76402.47;5046689;28;20036;-88
2022/06/11 01:58:28;;;;;;;4.72;1.60;;;;;;;-144.94;56.88;76406.59;5049236;28;20035;-88
2022/06/11 02:01:02;;;;;;;3.22;1.27;;;;;;;-144.94;56.92;76402.47;5047830;28;20033;-88
2022/06/11 02:03:54;;;;;;;4.38;1.40;;;;;;;-144.94;57.18;76418.94;5048646;28;20037;-89
2022/06/11 02:06:34;;;;;;;3.42;1.45;;;;;;;-144.94;57.54;76431.28;5043943;28;20033;-89
2022/06/11 02:09:24;;;;;;;4.22;1.35;;;;;;;-144.94;57.80;76441.59;5041664;28;20029;-89
2022/06/11 02:12:08;;;;;;;2.70;1.23;;;;;;;-144.94;57.73;76445.69;5022873;28;20342;-87
2022/06/11 02:14:53;;;;;;;4.68;1.98;;;;;;;-144.94;57.81;76447.75;5047062;28;20357;-88
2022/06/11 02:17:24;;;;;;;5.20;1.73;;;;;;;-144.94;57.64;76443.66;5026014;28;20460;-87
2022/06/11 02:19:56;;;;;;;8.50;1.85;;;;;;;-144.94;58.03;76458.06;5038856;28;20040;-88
2022/06/11 02:22:30;;;;;;;4.28;1.20;;;;;;;-144.94;58.13;76468.34;5037624;28;20079;-88
2022/06/11 02:25:25;;;;;;;5.20;1.42;;;;;;;-144.94;58.36;76480.69;5049933;28;20101;-86
2022/06/11 02:27:55;;;;;;;2.88;1.35;;;;;;;-144.94;58.44;76478.66;5048403;28;20049;-90
2022/06/11 02:30:23;;;;;;;4.10;1.65;;;;;;;-144.94;58.47;76488.94;5042635;28;20025;-89
2022/06/11 02:32:50;;;;;;;3.28;1.45;;;;;;;-144.94;58.53;76491.00;5040922;28;20064;-89
2022/06/11 02:35:26;;;;;;;3.42;1.35;;;;;;;-144.94;58.42;76491.00;5041403;28;20040;-89
2022/06/11 02:37:52;;;;;;;3.10;1.35;;;;;;;-144.94;58.36;76486.88;5041684;28;20026;-89
2022/06/11 02:40:25;;;;;;;4.07;1.48;;;;;;;-144.94;58.54;76497.16;5042191;28;20034;-89
2022/06/11 02:42:51;;;;;;;3.90;1.33;;;;;;;-144.94;58.82;76509.53;5039557;28;20440;-87
2022/06/11 02:45:16;;;;;;;5.68;2.17;;;;;;;-144.94;58.95;76521.88;5036430;28;20036;-86
2022/06/11 02:47:43;;;;;;;;;;;;;;;-144.94;58.98;76523.94;5018869;28;20076;-86
2022/06/11 02:50:19;;;;;;;3.13;1.38;;;;;;;-144.94;59.14;76523.94;5017826;28;19923;-87
2022/06/11 02:52:44;;;;;;;3.55;1.73;;;;;;;-144.94;59.51;76540.41;5039499;28;20117;-87
2022/06/11 02:55:09;;;;;;;;;;;;;;;-144.94;59.50;76534.22;5035829;28;20112;-87
2022/06/11 02:57:35;;;;;;;6.53;1.40;;;;;;;-144.94;59.46;76542.47;5040738;28;19913;-87
2022/06/11 03:00:01;;;;;;;;;;;;;;;-144.94;59.75;76550.69;5035187;28;20132;-83
2022/06/11 03:02:27;;;;;;;3.58;1.50;;;;;;;-144.94;59.52;76542.47;5033522;28;19909;-84
2022/06/11 03:04:53;;;;;;;;;;;;;;;-144.94;59.85;76558.94;5034079;28;20090;-83
2022/06/11 03:07:19;;;;;;;4.88;1.40;;;;;;;-144.94;60.02;76569.22;5033489;28;19916;-83
2022/06/11 03:09:45;;;;;;;;;;;;;;;-144.94;60.14;76569.22;5015940;28;20029;-83
2022/06/11 03:12:13;;;;;;;5.70;1.52;;;;;;;-144.94;60.21;76579.53;5033654;28;20001;-86
2022/06/11 03:14:41;;;;;;;3.40;1.38;;;;;;;-144.94;60.37;76589.81;5033475;28;20026;-86
2022/06/11 03:17:08;;;;;;;5.15;1.90;;;;;;;-144.94;60.61;76589.81;5033433;28;20040;-82
2022/06/11 03:19:33;;;;;;;4.65;1.70;;;;;;;-144.94;60.62;76596.00;5015805;28;20029;-83
2022/06/11 03:21:58;;;;;;;;;;;;;;;-144.94;60.71;76591.88;5033638;28;20039;-83
2022/06/11 03:24:27;;;;;;;6.20;1.60;;;;;;;-144.94;60.89;76600.09;5033569;28;19959;-83
2022/06/11 03:26:52;;;;;;;5.43;1.60;;;;;;;-144.94;61.01;76602.16;5015586;28;20311;-82
2022/06/11 03:29:18;;;;;;;;;;;;;;;-144.94;60.98;76604.22;5033993;28;20038;-82
2022/06/11 03:31:45;;;;;;;8.00;2.00;;;;;;;-144.94;60.83;76602.16;5032652;28;20401;-82
2022/06/11 03:34:11;;;;;;;6.88;1.67;;;;;;;-144.94;61.16;76612.47;5032895;28;20033;-82
2022/06/11 03:36:36;;;;;;;;;;;;;;;-144.94;60.92;76600.09;5033562;28;20025;-83
2022/06/11 03:39:03;;;;;;;3.28;1.42;;;;;;;-144.94;60.97;76600.09;5033201;28;19920;-87
2022/06/11 03:41:29;;;;;;;3.30;1.33;;;;;;;-144.94;61.00;76612.47;5038779;28;20113;-87
2022/06/11 03:43:54;;;;;;;;;;;;;;;-144.94;61.36;76616.59;5045817;28;20080;-87
2022/06/11 03:46:20;;;;;;;3.23;1.50;;;;;;;-144.94;61.26;76626.88;5041450;28;19916;-85
2022/06/11 03:48:46;;;;;;;;;;;;;;;-144.94;61.33;76622.75;5035123;28;20264;-84
2022/06/11 03:51:12;;;;;;;3.80;1.40;;;;;;;-144.94;61.32;76624.81;5033763;28;19913;-86
2022/06/11 03:53:37;;;;;;;;;;;;;;;-144.94;61.42;76624.81;5033816;28;20514;-82
2022/06/11 03:56:05;;;;;;;7.50;1.90;;;;;;;-144.94;61.52;76618.63;5034084;28;20355;-83
2022/06/11 03:58:32;;;;;;;4.70;1.65;;;;;;;-144.94;61.78;76622.75;5033629;28;20121;-85
2022/06/11 04:01:16;;;;;;;5.88;1.77;;;;;;;-144.94;61.54;76626.88;5033280;28;20330;-84
2022/06/11 04:04:05;;;;;;;4.88;1.60;;;;;;;-144.94;61.84;76631.00;5032755;28;20061;-83
2022/06/11 04:06:41;;;;;;;5.50;1.83;;;;;;;-144.94;61.63;76624.81;5033917;28;20029;-83
2022/06/11 04:09:10;;;;;;;4.38;1.95;;;;;;;-144.94;61.54;76626.88;5033708;28;20037;-84
2022/06/11 04:11:36;;;;;;;7.00;2.03;;;;;;;-144.94;61.74;76633.06;5034149;28;20044;-84
2022/06/11 04:14:01;;;;;;;;;;;;;;;-144.94;61.91;76639.22;5037402;28;20440;-84
2022/06/11 04:16:32;;;;;;;5.10;1.67;;;;;;;-144.94;61.95;76631.00;5036996;28;19909;-82
2022/06/11 04:18:59;;;;;;;3.75;1.40;;;;;;;-144.94;61.91;76624.81;5036640;28;20304;-84
2022/06/11 04:21:27;;;;;;;3.78;1.65;;;;;;;-144.94;61.77;76620.69;5038235;28;20038;-84
2022/06/11 04:23:55;;;;;;;4.95;1.70;;;;;;;-144.94;62.01;76631.00;5018793;28;20384;-85
2022/06/11 04:26:26;;;;;;;4.35;1.60;;;;;;;-144.94;61.66;76620.69;5036740;28;20033;-84
2022/06/11 04:28:51;;;;;;;3.42;1.50;;;;;;;-144.94;61.85;76622.75;5036804;28;20041;-84
2022/06/11 04:31:16;;;;;;;;;;;;;;;-144.94;61.76;76624.81;5036383;28;20563;-83
2022/06/11 04:33:49;;;;;;;2.45;1.20;;;;;;;-144.94;61.79;76620.69;5018619;28;20417;-83
2022/06/11 04:36:18;;;;;;;4.78;1.95;;;;;;;-144.94;61.63;76610.41;5035992;28;20503;-82
2022/06/11 04:38:44;;;;;;;2.80;1.30;;;;;;;-144.94;61.55;76606.28;5036264;28;20033;-83
2022/06/11 04:41:10;;;;;;;3.58;1.48;;;;;;;-144.94;61.42;76604.22;5036273;28;20112;-83
2022/06/11 04:43:35;;;;;;;;;;;;;;;-144.94;61.30;76606.28;5036453;28;20057;-85
2022/06/11 04:46:01;;;;;;;4.60;1.60;;;;;;;-144.94;61.31;76600.09;5035818;28;19991;-83
2022/06/11 04:48:27;;;;;;;2.75;1.30;;;;;;;-144.94;61.08;76593.94;5036254;28;20033;-83
2022/06/11 04:50:52;;;;;;;;;;;;;;;-144.94;60.99;76585.69;5037060;28;20036;-83
2022/06/11 04:53:18;;;;;;;5.47;1.63;;;;;;;-144.94;60.98;76585.69;5036203;28;19955;-84
2022/06/11 04:55:43;;;;;;;;;;;;;;;-144.94;60.99;76587.75;5036396;28;20060;-83
2022/06/11 04:58:08;;;;;;;5.63;1.60;;;;;;;-144.94;60.96;76585.69;5035881;28;19956;-81
2022/06/11 05:00:34;;;;;;;;;;;;;;;-144.94;60.76;76575.41;5036232;28;20079;-81
2022/06/11 05:03:00;;;;;;;3.45;1.27;;;;;;;-144.94;60.67;76569.22;5035534;28;19909;-83
2022/06/11 05:05:26;;;;;;;3.90;1.50;;;;;;;-144.94;60.56;76561.00;5036158;28;20033;-81
2022/06/11 05:07:53;;;;;;;3.63;1.50;;;;;;;-144.94;60.43;76550.69;5018004;28;20325;-82
2022/06/11 05:10:21;;;;;;;4.03;1.70;;;;;;;-144.94;60.54;76563.06;5017823;28;20082;-82
2022/06/11 05:12:47;;;;;;;5.40;1.55;;;;;;;-144.94;60.54;76558.94;5035545;28;20349;-82
2022/06/11 05:15:13;;;;;;;3.97;1.95;;;;;;;-144.94;60.21;76550.69;5035632;28;20036;-83
2022/06/11 05:17:39;;;;;;;3.42;1.33;;;;;;;-144.94;60.24;76548.63;5035614;28;20029;-82
2022/06/11 05:20:06;;;;;;;3.17;1.40;;;;;;;-144.94;59.95;76540.41;5036794;28;20353;-83
2022/06/11 05:22:31;;;;;;;4.53;1.80;;;;;;;-144.94;59.75;76523.94;5038144;28;20040;-83
2022/06/11 05:24:56;;;;;;;4.00;1.67;;;;;;;-144.94;59.23;76509.53;5035500;28;20025;-83
2022/06/11 05:27:24;;;;;;;;;;;;;;;-144.94;58.85;76497.16;5035524;28;20099;-84
2022/06/11 05:29:59;;;;;;;5.05;1.52;;;;;;;-144.94;58.92;76491.00;5035195;28;19909;-84
2022/06/11 05:32:29;;;;;;;7.93;1.95;;;;;;;-144.94;58.75;76486.88;5035157;28;20061;-83
2022/06/11 05:34:56;;;;;;;7.68;1.90;;;;;;;-144.94;58.67;76499.22;5036074;28;20025;-82
2022/06/11 05:37:22;;;;;;;5.63;1.40;;;;;;;-144.94;59.04;76528.06;5035201;28;20040;-84
2022/06/11 05:39:48;;;;;;;4.03;1.75;;;;;;;-144.94;58.98;76523.94;5017426;28;20060;-84
2022/06/11 05:42:15;;;;;;;3.72;1.48;;;;;;;-144.94;59.00;76530.13;5034925;28;20455;-83
2022/06/11 05:44:41;;;;;;;3.72;1.35;;;;;;;-144.94;59.33;76528.06;5034752;28;20068;-84
2022/06/11 05:47:09;;;;;;;5.85;1.50;;;;;;;-144.94;59.42;76536.28;5017400;28;20477;-85
2022/06/11 05:49:38;;;;;;;5.03;1.42;;;;;;;-144.94;59.56;76540.41;5034908;28;20025;-84
2022/06/11 05:52:10;;;;;;;4.47;1.55;;;;;;;-144.94;59.72;76538.34;5042785;28;20037;-84
2022/06/11 05:54:36;;;;;;;2.88;1.50;;;;;;;-144.94;59.56;76526.00;5050047;28;20164;-84
2022/06/11 05:57:09;;;;;;;4.20;2.00;;;;;;;-144.94;59.53;76530.13;5038966;28;20447;-83
2022/06/11 05:59:39;;;;;;;6.00;2.08;;;;;;;-144.94;59.78;76536.28;5036238;28;20059;-83
2022/06/11 06:02:08;;;;;;;3.15;1.23;;;;;;;-144.94;59.83;76534.22;5037080;28;20025;-83
2022/06/11 06:04:34;;;;;;;3.63;1.40;;;;;;;-144.94;59.42;76521.88;5039215;28;20025;-84
2022/06/11 06:06:59;;;;;;;4.05;1.45;;;;;;;-144.94;59.42;76521.88;5035561;28;20522;-84
2022/06/11 06:09:25;;;;;;;3.60;1.60;;;;;;;-144.94;59.67;76530.13;5034969;28;20038;-84
2022/06/11 06:11:50;;;;;;;;;;;;;;;-144.94;59.73;76530.13;5036725;28;20478;-84
2022/06/11 06:14:15;;;;;;;3.60;1.43;;;;;;;-144.94;59.77;76534.22;5035719;28;20351;-84
2022/06/11 06:16:40;;;;;;;;;;;;;;;-144.94;59.49;76517.75;5034998;28;20268;-83
2022/06/11 06:19:06;;;;;;;4.28;1.58;;;;;;;-144.94;59.23;76515.69;5034307;28;19917;-83
2022/06/11 06:21:34;;;;;;;4.93;1.60;;;;;;;-144.94;59.42;76521.88;5034047;28;20040;-83
2022/06/11 06:24:00;;;;;;;5.10;1.65;;;;;;;-144.94;59.20;76511.59;5016751;28;20029;-84
2022/06/11 06:26:26;;;;;;;3.75;1.70;;;;;;;-144.94;59.49;76521.88;5034419;28;20025;-83
2022/06/11 06:36:33;;;;;;;2.53;1.20;;;;;;;;;;5111217;27;20829;-44
2022/06/11 06:38:58;;;;;;;2.80;1.08;;;;;;;;;;5111114;28;20667;-45
2022/06/11 06:41:24;;;;;;;3.17;1.13;;;;;;;;;;5111208;28;20050;-43
2022/06/11 06:43:49;;;;;;;2.45;0.95;;;;;;;;;;5111243;28;20104;-44
2022/06/11 06:46:15;;;;;;;5.97;1.30;;;;;;;;;;5111395;28;20028;-44
2022/06/11 06:50:48;;;;;;;2.70;1.08;;;;;;;21.07;59.62;100871.69;5111187;27;20387;-44
2022/06/11 06:58:42;;;;;;;3.78;1.25;;;;;;;19.81;64.29;100871.84;5091148;27;20356;-85
2022/06/11 07:01:07;;;;;;;3.25;1.45;;;;;;;19.50;65.38;100881.38;5090088;28;20340;-83
2022/06/11 07:03:33;;;;;;;3.55;1.35;;;;;;;19.76;64.99;100879.69;5090149;28;20484;-83
2022/06/11 07:06:02;;;;;;;2.88;1.45;;;;;;;19.84;64.92;100875.84;5090399;28;20463;-81
2022/06/11 07:08:27;;;;;;;2.40;1.00;;;;;;;19.71;65.24;100878.06;5090043;28;20028;-81
2022/06/11 07:10:54;;;;;;;4.15;1.08;;;;;;;19.57;65.45;100882.63;5089961;28;20493;-80
2022/06/11 07:13:21;;;;;;;3.22;1.50;;;;;;;19.27;65.95;100888.94;5088786;28;20127;-83
2022/06/11 07:15:50;;;;;;;5.03;1.42;;;;;;;19.07;65.36;100882.78;5090314;28;20024;-83
2022/06/11 07:18:38;;;;;;;3.83;1.05;;;;;;;18.91;66.33;100882.94;5090756;28;20047;-84
2022/06/11 07:21:08;;;;;;;4.32;1.70;;;;;;;18.59;67.06;100882.44;5090145;28;20024;-83
2022/06/11 07:23:41;;;;;;;3.63;1.10;;;;;;;18.66;66.93;100884.56;5089297;28;20028;-88
2022/06/11 07:26:11;;;;;;;3.55;1.30;;;;;;;18.65;67.02;100888.47;5094238;28;20039;-88
2022/06/11 07:28:45;;;;;;;2.90;1.30;;;;;;;19.20;64.86;100897.16;5094431;28;20031;-85
2022/06/11 07:31:11;;;;;;;3.33;1.15;;;;;;;19.95;63.12;100885.03;5098053;28;20032;-89
2022/06/11 07:33:36;;;;;;;3.30;0.95;;;;;;;20.17;61.15;100877.75;5096934;28;20088;-88
2022/06/11 07:36:02;;;;;;;3.17;1.10;;;;;;;20.14;61.75;100884.81;5093289;28;20070;-91
2022/06/11 07:38:28;;;;;;;5.00;1.20;;;;;;;20.19;61.71;100885.66;5091938;28;20363;-89
2022/06/11 07:40:53;;;;;;;3.75;1.35;;;;;;;20.49;60.63;100888.28;5097469;28;20121;-88
2022/06/11 07:43:20;;;;;;;3.60;1.27;;;;;;;20.14;61.82;100886.78;5095965;28;20033;-88
2022/06/11 07:45:46;;;;;;;3.15;1.33;;;;;;;19.74;61.89;100882.03;5100116;28;20081;-86
2022/06/11 07:48:13;;;;;;;3.17;1.30;;;;;;;19.91;62.53;100886.97;5092801;28;20036;-87
2022/06/11 07:50:42;;;;;;;3.25;1.13;;;;;;;19.97;62.22;100885.44;5092745;28;20378;-87
2022/06/11 07:53:08;;;;;;;4.15;1.58;;;;;;;20.01;61.61;100880.75;5105672;28;20126;-91
2022/06/11 07:55:35;;;;;;;2.35;1.05;;;;;;;20.46;61.10;100878.00;5091608;28;20111;-85
2022/06/11 07:58:02;;;;;;;4.22;1.30;;;;;;;20.27;60.75;100874.25;5090778;28;20052;-83
2022/06/11 08:00:31;;;;;;;2.78;1.10;;;;;;;20.13;61.82;100877.69;5091578;28;20036;-82
2022/06/11 08:02:57;;;;;;;4.38;1.50;;;;;;;20.28;61.69;100888.88;5090098;28;20051;-84
2022/06/11 08:05:23;;;;;;;2.50;1.10;;;;;;;20.17;61.78;100888.00;5089440;28;20153;-83
2022/06/11 08:07:51;;;;;;;2.13;1.00;;;;;;;20.25;62.16;100884.91;5087646;28;20032;-84
2022/06/11 08:10:18;;;;;;;2.70;1.15;;;;;;;20.60;60.87;100887.19;5075386;28;20178;-84
2022/06/11 08:12:43;;;;;;;2.70;1.02;;;;;;;20.61;60.97;100886.03;5075627;28;20028;-83
2022/06/11 08:15:10;;;;;;;2.38;1.27;;;;;;;20.47;61.13;100885.91;5075303;28;20024;-83
2022/06/11 08:17:35;;;;;;;3.92;1.00;;;;;;;20.18;61.68;100884.06;5075566;28;20375;-82
2022/06/11 08:20:03;;;;;;;6.32;1.88;;;;;;;20.19;61.94;100891.97;5075931;28;20032;-83
2022/06/11 08:22:30;;;;;;;2.80;1.30;;;;;;;20.25;62.04;100895.19;5074612;28;20421;-83
2022/06/11 08:24:56;;;;;;;4.13;1.40;;;;;;;19.86;63.24;100889.28;5075471;28;20083;-84
2022/06/11 08:27:21;;;;;;;2.70;1.10;;;;;;;19.98;63.06;100897.28;5074900;28;20048;-84
2022/06/11 08:29:47;;;;;;;6.53;1.60;;;;;;;19.92;63.80;100899.59;5076200;28;20459;-83
2022/06/11 08:32:12;;;;;;;4.22;1.38;;;;;;;19.87;63.13;100897.19;5076277;28;20524;-84
2022/06/11 08:34:39;;;;;;;4.97;1.30;;;;;;;19.96;63.58;100894.91;5076337;28;20032;-85
2022/06/11 08:37:04;;;;;;;4.82;1.40;;;;;;;19.84;63.47;100900.72;5077294;28;20032;-84
2022/06/11 08:39:30;;;;;;;5.32;1.40;;;;;;;19.72;63.97;100907.28;5057782;28;20032;-85
2022/06/11 08:41:58;;;;;;;3.42;1.33;;;;;;;19.82;63.83;100908.59;5075615;28;20103;-84
2022/06/11 08:44:24;;;;;;;4.57;1.17;;;;;;;19.93;63.53;100909.47;5075672;28;20055;-85
2022/06/11 08:46:50;;;;;;;5.13;2.38;;;;;;;19.92;63.96;100896.84;5075997;28;20447;-83
2022/06/11 08:49:42;;;;;;;4.55;1.88;;;;;;;19.99;63.71;100908.00;5076112;28;20039;-88
2022/06/11 08:52:23;;;;;;;2.75;1.10;;;;;;;20.12;63.32;100906.50;5075771;28;20033;-85
2022/06/11 08:54:49;;;;;;;4.13;1.30;;;;;;;20.02;63.23;100901.69;5075510;28;20035;-84
2022/06/11 08:57:40;;;;;;;2.55;1.23;;;;;;;19.97;63.62;100895.69;5075123;28;20045;-84
2022/06/11 09:00:22;;;;;;;4.95;2.08;;;;;;;20.13;63.22;100905.34;5071886;28;20469;-85
2022/06/11 09:03:11;;;;;;;7.40;2.42;;;;;;;20.35;62.59;100900.03;5076018;28;20035;-85
2022/06/11 09:05:53;;;;;;;4.40;2.17;;;;;;;20.56;61.68;100894.69;5075776;28;20031;-85
2022/06/11 09:08:47;;;;;;;5.18;2.00;;;;;;;20.37;62.33;100897.66;5075931;28;20107;-86
2022/06/11 09:11:46;;;;;;;5.28;2.47;;;;;;;20.25;62.15;100903.47;5076113;28;20154;-84
2022/06/11 09:14:59;;;;;;;4.60;2.83;;;;;;;20.24;62.88;100904.66;5077257;28;20021;-88
2022/06/11 09:17:42;;;;;;;6.70;3.00;;;;;;;20.03;63.09;100895.00;5073401;28;20040;-85
2022/06/11 09:20:30;;;;;;;4.90;2.80;;;;;;;20.11;63.27;100898.59;5072399;28;20539;-86
2022/06/11 09:23:07;;;;;;;6.07;3.13;;;;;;;20.40;62.43;100902.44;5074880;28;20036;-84
2022/06/11 09:25:51;;;;;;;6.22;3.45;;;;;;;20.22;62.82;100893.19;5076930;28;20036;-86
2022/06/11 09:28:35;;;;;;;5.70;3.33;;;;;;;20.22;63.33;100904.25;5075493;28;20047;-86
2022/06/11 09:31:17;;;;;;;7.20;3.40;;;;;;;20.09;63.39;100898.19;5075870;28;20095;-85
2022/06/11 09:34:35;;;;;;;5.97;3.20;;;;;;;20.05;63.97;100913.94;5075770;28;20059;-86
2022/06/11 09:37:24;;;;;;;5.53;2.95;;;;;;;20.17;64.27;100907.38;5053579;28;20048;-86
2022/06/11 09:40:08;;;;;;;6.70;3.20;;;;;;;20.32;62.81;100909.06;5068589;28;20056;-85
2022/06/11 09:42:57;;;;;;;5.22;3.35;;;;;;;20.07;63.52;100917.94;5074865;28;20111;-85
2022/06/11 09:45:23;;;;;;;6.00;2.97;;;;;;;20.34;62.78;100909.50;5074570;28;20028;-84
2022/06/11 09:47:54;;;;;;;7.18;2.78;;;;;;;20.33;62.81;100918.97;5073226;28;20120;-84
2022/06/11 09:50:22;;;;;;;5.40;2.45;;;;;;;20.36;62.94;100919.00;5074384;28;20101;-85
2022/06/11 09:53:05;;;;;;;9.07;2.95;;;;;;;20.29;63.47;100915.34;5073132;28;20029;-84
2022/06/11 09:55:42;;;;;;;6.07;1.85;;;;;;;20.30;63.22;100920.50;5076052;28;20033;-88
2022/06/11 09:58:26;;;;;;;6.32;2.15;;;;;;;20.19;62.96;100918.84;5074612;28;20505;-83
2022/06/11 10:01:16;;;;;;;6.43;2.75;;;;;;;19.98;63.84;100919.38;5074198;28;20094;-85
2022/06/11 10:03:46;;;;;;;4.55;2.53;;;;;;;20.13;63.61;100915.59;5073115;28;20051;-84
2022/06/11 10:06:20;;;;;;;6.57;2.50;;;;;;;20.08;64.23;100921.47;5076555;28;20217;-83
2022/06/11 10:09:16;;;;;;;8.10;2.90;;;;;;;20.38;63.86;100915.84;5074703;28;20134;-85
2022/06/11 10:12:10;;;;;;;6.78;1.90;;;;;;;20.50;63.68;100912.03;5064553;28;20537;-85
2022/06/11 10:14:53;;;;;;;7.47;2.40;;;;;;;20.68;62.82;100916.53;5072566;28;20028;-85
2022/06/11 10:17:27;;;;;;;5.18;2.10;;;;;;;20.50;63.14;100918.34;5073440;28;20033;-84
2022/06/11 10:20:13;;;;;;;6.22;1.85;;;;;;;20.71;62.07;100915.75;5073956;28;20409;-85
2022/06/11 10:22:50;;;;;;;4.97;1.87;;;;;;;20.73;62.10;100909.84;5074544;28;20136;-89
2022/06/11 10:25:27;;;;;;;6.15;2.33;;;;;;;21.02;60.64;100916.34;5076312;28;20622;-89
2022/06/11 10:28:13;;;;;;;5.68;1.73;;;;;;;21.08;60.98;100911.25;5075680;28;20496;-88
2022/06/11 10:30:51;;;;;;;4.38;1.90;;;;;;;21.12;60.59;100914.81;5074643;28;20056;-89
2022/06/11 10:33:29;;;;;;;5.85;1.70;;;;;;;21.48;60.00;100921.34;5075155;28;20032;-90
2022/06/11 10:36:08;;;;;;;4.25;2.10;;;;;;;21.44;59.62;100909.47;5073952;28;20119;-90
2022/06/11 10:38:42;;;;;;;3.60;1.63;;;;;;;21.61;59.85;100915.09;5073654;28;20025;-83
2022/06/11 10:41:14;;;;;;;3.85;2.17;;;;;;;20.99;60.53;100911.56;5073335;28;20032;-81
2022/06/11 10:44:04;;;;;;;5.40;2.35;;;;;;;21.36;60.65;100913.41;5073193;28;20339;-83
2022/06/11 10:46:33;;;;;;;4.13;1.80;;;;;;;21.45;59.19;100911.06;5071933;28;20025;-82
2022/06/11 10:48:59;;;;;;;5.03;2.28;;;;;;;21.44;58.96;100915.81;5073267;28;20028;-83
2022/06/11 10:51:31;;;;;;;5.00;2.22;;;;;;;21.57;58.11;100910.72;5073118;28;20032;-82
2022/06/11 10:54:13;;;;;;;4.72;2.00;;;;;;;21.57;57.52;100907.94;5074374;28;20032;-82
2022/06/11 10:56:54;;;;;;;4.65;1.92;;;;;;;21.57;57.99;100907.94;5073050;28;20055;-82
2022/06/11 10:59:19;;;;;;;5.07;2.20;;;;;;;21.65;56.83;100906.78;5072830;28;20024;-81
2022/06/11 11:01:52;;;;;;;4.10;1.88;;;;;;;21.67;57.54;100906.38;5072937;28;20172;-82
2022/06/11 11:04:24;;;;;;;4.78;1.98;;;;;;;21.79;56.93;100898.50;5071714;28;20033;-83
2022/06/11 11:07:10;;;;;;;5.88;2.00;;;;;;;21.86;56.57;100904.09;5071769;28;20459;-83
2022/06/11 11:09:35;;;;;;;3.72;1.65;;;;;;;21.83;57.08;100895.75;5072466;28;20040;-83
2022/06/11 11:12:06;;;;;;;4.75;1.58;;;;;;;21.98;56.45;100900.13;5072897;28;20120;-83
2022/06/11 11:14:41;;;;;;;3.60;1.55;;;;;;;21.94;56.97;100899.34;5072694;28;20028;-83
2022/06/11 11:17:28;;;;;;;3.67;1.92;;;;;;;22.14;56.21;100886.72;5072846;28;20040;-82
2022/06/11 11:20:32;;;;;;;3.42;1.90;;;;;;;22.19;55.91;100882.78;5072487;28;20033;-83
2022/06/11 11:23:21;;;;;;;4.95;1.85;;;;;;;22.36;55.75;100889.53;5072614;28;20371;-83
2022/06/11 11:25:54;;;;;;;4.80;1.60;;;;;;;22.12;54.73;100880.78;5072880;28;20152;-83
2022/06/11 11:28:37;;;;;;;4.43;1.88;;;;;;;22.04;55.38;100881.16;5072996;28;20094;-82
2022/06/11 11:31:07;;;;;;;3.60;1.52;;;;;;;21.98;56.22;100880.72;5072881;28;20052;-83
2022/06/11 11:33:36;;;;;;;4.75;1.70;;;;;;;21.85;55.96;100882.31;5072586;28;20475;-83
2022/06/11 11:36:31;;;;;;;5.28;1.90;;;;;;;21.68;56.13;100892.16;5072609;28;20032;-82
2022/06/11 11:39:19;;;;;;;4.80;1.80;;;;;;;21.57;56.14;100896.88;5062340;28;20036;-80
2022/06/11 11:42:07;;;;;;;4.63;1.90;;;;;;;21.50;56.92;100885.75;5071958;28;20360;-81
2022/06/11 11:44:50;;;;;;;3.92;1.65;;;;;;;21.83;56.65;100890.19;5074448;28;20043;-82
2022/06/11 11:47:37;;;;;;;5.85;2.03;;;;;;;22.04;55.52;100876.38;5075929;28;20054;-81
2022/06/11 11:50:11;;;;;;;5.90;1.55;;;;;;;22.69;55.23;100882.75;5075736;28;20032;-83
2022/06/11 11:52:59;;;;;;;4.13;1.55;;;;;;;22.51;53.13;100880.81;5075728;28;20383;-83
2022/06/11 11:55:31;;;;;;;3.22;1.05;;;;;;;22.60;54.11;100885.13;5075794;28;20064;-84
2022/06/11 11:58:04;;;;;;;3.92;1.60;;;;;;;22.55;54.25;100871.69;5074071;28;20053;-83
2022/06/11 12:00:44;;;;;;;3.63;1.42;;;;;;;22.77;53.29;100873.22;5075664;28;20036;-86
2022/06/11 12:03:34;;;;;;;3.67;1.60;;;;;;;22.31;54.39;100874.03;5076638;28;20056;-89
2022/06/11 12:06:01;;;;;;;4.28;1.75;;;;;;;22.37;54.68;100880.00;5075445;28;20098;-85
2022/06/11 12:08:35;;;;;;;3.22;1.50;;;;;;;22.50;54.40;100884.75;5075922;28;20461;-81
2022/06/11 12:11:01;;;;;;;5.90;1.55;;;;;;;22.59;53.51;100883.56;5073989;28;20032;-78